Airfield :
LOGIN :

Register | Disclaimer

   EN    FR    IT 

 










Legend :    VFR   Marginal VFR   IFR   Intensive IFR   Very Intensive IFR
Visi :
Ceiling :
>= 8 km
>= 3000ft
5 to 8 km
1000 to 3000 ft
1500m to 5 km
500 to 1000 ft
800 to 1500m
200 to 500 ft
< 800m
< 200 ft
Symbols :   Thunderstorms  Fog  Heavy snow  Heavy precipitations  Wind > 20 kt
SIGMETs :     Misc.  Thunderstorms  Icing  Turbulence  Mountain Waves  Volcanic Ashes






- Airport Elevation : 83 ft
- IATA code : LHR


EGLL - London Heathrow

CURRENT METAR :
  • 100450Z AUTO 18004KT 150V240 9999 NCD 01/00 Q1022 NOSIG

EXPIRED METARs :
  • 100420Z AUTO VRB03KT 9999 NCD 01/00 Q1023 NOSIG
  • 100350Z AUTO 18004KT 9999 NCD 01/00 Q1023 NOSIG
  • 100320Z AUTO 19005KT 9999 NCD 02/01 Q1024 NOSIG
  • 100250Z AUTO 19005KT 9999 NCD 02/01 Q1024 NOSIG
  • 100220Z AUTO VRB01KT 9999 NCD 02/01 Q1024

TAF TAF EGLL
Valid from the 10 at 00:00 until the 11 at 06:00 UTC


092303Z 1000/1106 19005KT 9999 SCT030
PROB30 1000/1006 8000
BECMG 1007/1010 19015G25KT
BECMG 1011/1014 20020G38KT BKN012
TEMPO 1011/1023 6000 RA
PROB30
TEMPO 1014/1019 BKN008
PROB30
TEMPO 1017/1020 4000 +RA
BECMG 1019/1022 26008KT FEW025
TEMPO 1019/1021 25015G28KT



MET'MAP, your aeronautical weather chart ! - Copyright ORBIFLY December 2007 - Disclaimer

ORBIFLY MET'MAP TEAM :

Programming & Development : Alexandra Zaïnal
Concept & original design : Baudouin d'Aumeries
Assistance for programming : Marc-Olivier Méhu
Technical & hardware support : Manuel Goepfert

Contact : metmap@orbifly.com




SOURCES & CREDITS :

   NOAA